sensor_id;sensor_type;location;lat;lon;timestamp;pressure;altitude;pressure_sealevel;temperature;humidity
79362;BME280;68830;47.566;19.012;2024-03-17T00:00:32;100187.66;;;13.48;85.22
79362;BME280;68830;47.566;19.012;2024-03-17T00:03:33;100195.63;;;13.48;85.50
79362;BME280;68830;47.566;19.012;2024-03-17T00:06:34;100203.75;;;13.46;85.54
79362;BME280;68830;47.566;19.012;2024-03-17T00:09:35;100186.25;;;13.36;86.13
79362;BME280;68830;47.566;19.012;2024-03-17T00:12:37;100202.25;;;13.44;86.33
79362;BME280;68830;47.566;19.012;2024-03-17T00:15:38;100196.91;;;13.36;86.40
79362;BME280;68830;47.566;19.012;2024-03-17T00:18:39;100194.19;;;13.28;87.14
79362;BME280;68830;47.566;19.012;2024-03-17T00:21:42;100209.00;;;13.30;87.32
79362;BME280;68830;47.566;19.012;2024-03-17T00:24:43;100193.69;;;13.24;87.72
79362;BME280;68830;47.566;19.012;2024-03-17T00:27:47;100208.16;;;13.22;87.95
79362;BME280;68830;47.566;19.012;2024-03-17T00:30:49;100198.41;;;13.12;88.61
79362;BME280;68830;47.566;19.012;2024-03-17T00:33:51;100192.94;;;13.14;89.12
79362;BME280;68830;47.566;19.012;2024-03-17T00:36:53;100202.22;;;13.10;89.15
79362;BME280;68830;47.566;19.012;2024-03-17T00:39:54;100190.25;;;13.06;90.00
79362;BME280;68830;47.566;19.012;2024-03-17T00:42:56;100199.34;;;12.95;90.07
79362;BME280;68830;47.566;19.012;2024-03-17T00:45:57;100200.81;;;12.90;90.48
79362;BME280;68830;47.566;19.012;2024-03-17T00:48:59;100205.97;;;12.91;90.64
79362;BME280;68830;47.566;19.012;2024-03-17T00:52:01;100205.44;;;12.88;90.97
79362;BME280;68830;47.566;19.012;2024-03-17T00:55:02;100196.25;;;12.82;91.70
79362;BME280;68830;47.566;19.012;2024-03-17T00:58:05;100180.88;;;12.68;91.89
79362;BME280;68830;47.566;19.012;2024-03-17T01:01:06;100171.25;;;12.67;91.40
79362;BME280;68830;47.566;19.012;2024-03-17T01:04:07;100140.81;;;12.35;92.21
79362;BME280;68830;47.566;19.012;2024-03-17T01:07:08;100206.31;;;12.70;92.31
79362;BME280;68830;47.566;19.012;2024-03-17T01:10:10;100198.63;;;12.59;92.90
79362;BME280;68830;47.566;19.012;2024-03-17T01:13:13;100188.31;;;12.56;93.48
79362;BME280;68830;47.566;19.012;2024-03-17T01:16:14;100191.41;;;12.51;94.37
79362;BME280;68830;47.566;19.012;2024-03-17T01:19:16;100202.81;;;12.44;95.17
79362;BME280;68830;47.566;19.012;2024-03-17T01:22:18;100177.25;;;12.25;94.68
79362;BME280;68830;47.566;19.012;2024-03-17T01:25:19;100185.94;;;12.27;94.20
79362;BME280;68830;47.566;19.012;2024-03-17T01:28:22;100208.56;;;12.39;94.46
79362;BME280;68830;47.566;19.012;2024-03-17T01:31:23;100186.38;;;12.22;95.01
79362;BME280;68830;47.566;19.012;2024-03-17T01:34:25;100200.25;;;12.34;94.63
79362;BME280;68830;47.566;19.012;2024-03-17T01:37:27;100197.06;;;12.31;95.64
79362;BME280;68830;47.566;19.012;2024-03-17T01:40:32;100197.81;;;12.23;95.58
79362;BME280;68830;47.566;19.012;2024-03-17T01:43:35;100173.72;;;12.16;96.32
79362;BME280;68830;47.566;19.012;2024-03-17T01:46:36;100202.44;;;12.21;96.21
79362;BME280;68830;47.566;19.012;2024-03-17T01:49:38;100209.91;;;12.17;96.99
79362;BME280;68830;47.566;19.012;2024-03-17T01:52:39;100186.53;;;12.03;97.84
79362;BME280;68830;47.566;19.012;2024-03-17T01:55:43;100153.91;;;11.75;97.82
79362;BME280;68830;47.566;19.012;2024-03-17T01:58:47;100212.03;;;12.14;98.25
79362;BME280;68830;47.566;19.012;2024-03-17T02:01:48;100193.03;;;12.09;97.87
79362;BME280;68830;47.566;19.012;2024-03-17T02:04:49;100222.34;;;12.17;98.46
79362;BME280;68830;47.566;19.012;2024-03-17T02:07:51;100211.94;;;12.06;98.68
79362;BME280;68830;47.566;19.012;2024-03-17T02:10:54;100198.31;;;12.01;98.87
79362;BME280;68830;47.566;19.012;2024-03-17T02:13:57;100214.16;;;12.10;98.84
79362;BME280;68830;47.566;19.012;2024-03-17T02:16:58;100234.78;;;12.16;98.76
79362;BME280;68830;47.566;19.012;2024-03-17T02:20:01;100230.91;;;12.11;99.41
79362;BME280;68830;47.566;19.012;2024-03-17T02:23:03;100243.88;;;12.14;100.00
79362;BME280;68830;47.566;19.012;2024-03-17T02:26:05;100197.78;;;11.70;100.00
79362;BME280;68830;47.566;19.012;2024-03-17T02:29:05;100264.03;;;12.07;100.00
79362;BME280;68830;47.566;19.012;2024-03-17T02:32:07;100263.63;;;12.11;100.00
79362;BME280;68830;47.566;19.012;2024-03-17T02:35:08;100273.41;;;12.11;100.00
79362;BME280;68830;47.566;19.012;2024-03-17T02:38:16;100269.91;;;12.10;100.00
79362;BME280;68830;47.566;19.012;2024-03-17T02:41:42;100275.81;;;12.04;100.00
79362;BME280;68830;47.566;19.012;2024-03-17T02:44:42;100210.78;;;11.63;100.00
79362;BME280;68830;47.566;19.012;2024-03-17T02:47:43;100269.34;;;11.89;100.00
79362;BME280;68830;47.566;19.012;2024-03-17T02:50:45;100285.03;;;11.82;100.00
79362;BME280;68830;47.566;19.012;2024-03-17T02:53:48;100252.56;;;11.61;100.00
79362;BME280;68830;47.566;19.012;2024-03-17T02:56:50;100268.22;;;11.64;100.00
79362;BME280;68830;47.566;19.012;2024-03-17T02:59:51;100265.75;;;11.53;100.00
79362;BME280;68830;47.566;19.012;2024-03-17T03:02:52;100265.75;;;11.53;100.00
79362;BME280;68830;47.566;19.012;2024-03-17T03:05:53;100241.25;;;11.31;100.00
79362;BME280;68830;47.566;19.012;2024-03-17T03:08:59;100261.00;;;11.19;100.00
79362;BME280;68830;47.566;19.012;2024-03-17T03:12:00;100235.97;;;10.94;100.00
79362;BME280;68830;47.566;19.012;2024-03-17T03:15:04;100259.94;;;10.93;100.00
79362;BME280;68830;47.566;19.012;2024-03-17T03:18:06;100277.66;;;10.83;100.00
79362;BME280;68830;47.566;19.012;2024-03-17T03:21:07;100270.84;;;10.70;100.00
79362;BME280;68830;47.566;19.012;2024-03-17T03:24:10;100261.13;;;10.61;100.00
79362;BME280;68830;47.566;19.012;2024-03-17T03:27:11;100203.00;;;10.50;100.00
79362;BME280;68830;47.566;19.012;2024-03-17T03:30:13;100256.75;;;10.89;100.00
79362;BME280;68830;47.566;19.012;2024-03-17T03:33:16;100262.31;;;10.96;100.00
79362;BME280;68830;47.566;19.012;2024-03-17T03:36:18;100266.34;;;11.00;100.00
79362;BME280;68830;47.566;19.012;2024-03-17T03:39:21;100250.06;;;10.85;100.00
79362;BME280;68830;47.566;19.012;2024-03-17T03:42:22;100270.50;;;11.02;100.00
79362;BME280;68830;47.566;19.012;2024-03-17T03:45:24;100274.56;;;11.06;100.00
79362;BME280;68830;47.566;19.012;2024-03-17T03:48:26;100289.88;;;11.13;100.00
79362;BME280;68830;47.566;19.012;2024-03-17T03:51:27;100291.00;;;11.10;100.00
79362;BME280;68830;47.566;19.012;2024-03-17T03:54:30;100297.28;;;11.09;100.00
79362;BME280;68830;47.566;19.012;2024-03-17T03:57:31;100294.25;;;11.04;100.00
79362;BME280;68830;47.566;19.012;2024-03-17T04:00:32;100291.44;;;11.05;100.00
79362;BME280;68830;47.566;19.012;2024-03-17T04:03:35;100298.97;;;11.00;100.00
79362;BME280;68830;47.566;19.012;2024-03-17T04:06:37;100297.44;;;10.98;100.00
79362;BME280;68830;47.566;19.012;2024-03-17T04:09:40;100296.06;;;10.94;100.00
79362;BME280;68830;47.566;19.012;2024-03-17T04:12:42;100309.47;;;10.92;100.00
79362;BME280;68830;47.566;19.012;2024-03-17T04:15:43;100306.81;;;10.83;100.00
79362;BME280;68830;47.566;19.012;2024-03-17T04:18:45;100306.69;;;10.74;98.30
79362;BME280;68830;47.566;19.012;2024-03-17T04:21:46;100304.44;;;10.70;96.72
79362;BME280;68830;47.566;19.012;2024-03-17T04:24:50;100309.50;;;10.73;93.44
79362;BME280;68830;47.566;19.012;2024-03-17T04:27:54;100288.00;;;10.57;91.72
79362;BME280;68830;47.566;19.012;2024-03-17T04:31:03;100304.19;;;10.63;90.38
79362;BME280;68830;47.566;19.012;2024-03-17T04:34:04;100298.59;;;10.57;89.57
79362;BME280;68830;47.566;19.012;2024-03-17T04:37:07;100281.31;;;10.53;87.11
79362;BME280;68830;47.566;19.012;2024-03-17T04:40:10;100280.66;;;10.60;85.08
79362;BME280;68830;47.566;19.012;2024-03-17T04:43:12;100286.78;;;10.61;85.51
79362;BME280;68830;47.566;19.012;2024-03-17T04:46:13;100265.44;;;10.62;86.73
79362;BME280;68830;47.566;19.012;2024-03-17T04:49:16;100272.56;;;10.62;88.91
79362;BME280;68830;47.566;19.012;2024-03-17T04:52:18;100265.59;;;10.51;90.66
79362;BME280;68830;47.566;19.012;2024-03-17T04:55:21;100267.13;;;10.34;91.96
79362;BME280;68830;47.566;19.012;2024-03-17T04:58:21;100276.88;;;10.34;93.38
79362;BME280;68830;47.566;19.012;2024-03-17T05:01:22;100287.88;;;10.29;93.96
79362;BME280;68830;47.566;19.012;2024-03-17T05:04:25;100295.53;;;10.32;93.15
79362;BME280;68830;47.566;19.012;2024-03-17T05:07:26;100306.13;;;10.32;92.34
79362;BME280;68830;47.566;19.012;2024-03-17T05:10:31;100309.91;;;10.30;92.25
79362;BME280;68830;47.566;19.012;2024-03-17T05:13:32;100316.56;;;10.24;91.15
79362;BME280;68830;47.566;19.012;2024-03-17T05:16:33;100307.09;;;10.22;91.82
79362;BME280;68830;47.566;19.012;2024-03-17T05:19:35;100321.56;;;10.17;89.83
79362;BME280;68830;47.566;19.012;2024-03-17T05:22:36;100320.81;;;10.06;89.27
79362;BME280;68830;47.566;19.012;2024-03-17T05:25:44;100315.53;;;10.06;86.84
79362;BME280;68830;47.566;19.012;2024-03-17T05:28:51;100331.50;;;9.95;84.73
79362;BME280;68830;47.566;19.012;2024-03-17T05:31:52;100323.00;;;9.91;83.63
79362;BME280;68830;47.566;19.012;2024-03-17T05:34:53;100320.22;;;9.83;82.51
79362;BME280;68830;47.566;19.012;2024-03-17T05:37:55;100322.69;;;9.75;81.31
79362;BME280;68830;47.566;19.012;2024-03-17T05:40:58;100305.94;;;9.65;80.52
79362;BME280;68830;47.566;19.012;2024-03-17T05:44:02;100287.16;;;9.58;79.46
79362;BME280;68830;47.566;19.012;2024-03-17T05:47:04;100303.34;;;9.74;78.99
79362;BME280;68830;47.566;19.012;2024-03-17T05:50:09;100318.22;;;9.66;78.77
79362;BME280;68830;47.566;19.012;2024-03-17T05:53:10;100292.84;;;9.63;78.74
79362;BME280;68830;47.566;19.012;2024-03-17T05:56:12;100306.75;;;9.55;77.31
79362;BME280;68830;47.566;19.012;2024-03-17T05:59:13;100324.59;;;9.63;77.06
79362;BME280;68830;47.566;19.012;2024-03-17T06:02:15;100316.84;;;9.71;76.85
79362;BME280;68830;47.566;19.012;2024-03-17T06:05:16;100332.28;;;9.76;76.33
79362;BME280;68830;47.566;19.012;2024-03-17T06:08:17;100326.03;;;9.77;75.45
79362;BME280;68830;47.566;19.012;2024-03-17T06:11:19;100351.00;;;9.94;75.76
79362;BME280;68830;47.566;19.012;2024-03-17T06:14:20;100350.88;;;9.95;75.76
79362;BME280;68830;47.566;19.012;2024-03-17T06:17:21;100342.13;;;10.04;75.75
79362;BME280;68830;47.566;19.012;2024-03-17T06:20:23;100355.41;;;10.14;74.83
79362;BME280;68830;47.566;19.012;2024-03-17T06:23:28;100359.72;;;10.15;75.09
79362;BME280;68830;47.566;19.012;2024-03-17T06:26:30;100354.00;;;10.19;75.56
79362;BME280;68830;47.566;19.012;2024-03-17T06:29:34;100354.34;;;10.26;75.27
79362;BME280;68830;47.566;19.012;2024-03-17T06:32:35;100348.22;;;10.35;74.48
79362;BME280;68830;47.566;19.012;2024-03-17T06:35:36;100336.38;;;10.39;73.84
79362;BME280;68830;47.566;19.012;2024-03-17T06:38:37;100350.72;;;10.37;73.46
79362;BME280;68830;47.566;19.012;2024-03-17T06:41:40;100355.88;;;10.29;72.91
79362;BME280;68830;47.566;19.012;2024-03-17T06:44:41;100374.69;;;10.35;73.25
79362;BME280;68830;47.566;19.012;2024-03-17T06:47:42;100370.09;;;10.37;73.86
79362;BME280;68830;47.566;19.012;2024-03-17T06:50:45;100364.41;;;10.42;72.61
79362;BME280;68830;47.566;19.012;2024-03-17T06:53:46;100350.03;;;10.44;72.64
79362;BME280;68830;47.566;19.012;2024-03-17T06:56:48;100353.94;;;10.50;71.38
79362;BME280;68830;47.566;19.012;2024-03-17T06:59:49;100365.22;;;10.52;72.03
79362;BME280;68830;47.566;19.012;2024-03-17T07:02:51;100368.19;;;10.59;70.84
79362;BME280;68830;47.566;19.012;2024-03-17T07:05:53;100360.22;;;10.59;70.31
79362;BME280;68830;47.566;19.012;2024-03-17T07:08:54;100362.16;;;10.66;70.72
79362;BME280;68830;47.566;19.012;2024-03-17T07:11:57;100371.50;;;10.70;70.19
79362;BME280;68830;47.566;19.012;2024-03-17T07:14:58;100359.69;;;10.74;70.75
79362;BME280;68830;47.566;19.012;2024-03-17T07:18:00;100366.38;;;10.78;70.04
79362;BME280;68830;47.566;19.012;2024-03-17T07:21:02;100361.91;;;10.79;69.35
79362;BME280;68830;47.566;19.012;2024-03-17T07:24:08;100359.94;;;10.91;69.23
79362;BME280;68830;47.566;19.012;2024-03-17T07:27:10;100340.97;;;10.95;69.55
79362;BME280;68830;47.566;19.012;2024-03-17T07:30:14;100347.25;;;10.94;68.55
79362;BME280;68830;47.566;19.012;2024-03-17T07:33:16;100363.94;;;11.14;69.18
79362;BME280;68830;47.566;19.012;2024-03-17T07:36:17;100361.44;;;11.13;68.99
79362;BME280;68830;47.566;19.012;2024-03-17T07:39:19;100362.56;;;11.20;67.75
79362;BME280;68830;47.566;19.012;2024-03-17T07:42:21;100362.81;;;11.26;67.08
79362;BME280;68830;47.566;19.012;2024-03-17T07:45:22;100373.97;;;11.30;67.28
79362;BME280;68830;47.566;19.012;2024-03-17T07:48:23;100359.59;;;11.32;67.28
79362;BME280;68830;47.566;19.012;2024-03-17T07:51:24;100358.06;;;11.30;67.45
79362;BME280;68830;47.566;19.012;2024-03-17T07:54:26;100372.28;;;11.38;67.33
79362;BME280;68830;47.566;19.012;2024-03-17T07:57:28;100366.00;;;11.49;67.33
79362;BME280;68830;47.566;19.012;2024-03-17T08:00:30;100363.28;;;11.59;67.38
79362;BME280;68830;47.566;19.012;2024-03-17T08:03:32;100323.41;;;10.27;71.73
79362;BME280;68830;47.566;19.012;2024-03-17T08:06:33;100319.66;;;9.89;73.30
79362;BME280;68830;47.566;19.012;2024-03-17T08:09:35;100339.47;;;10.04;74.34
79362;BME280;68830;47.566;19.012;2024-03-17T08:12:37;100360.38;;;10.07;73.49
79362;BME280;68830;47.566;19.012;2024-03-17T08:15:38;100309.66;;;9.83;72.58
79362;BME280;68830;47.566;19.012;2024-03-17T08:18:40;100339.84;;;10.30;72.16
79362;BME280;68830;47.566;19.012;2024-03-17T08:21:42;100361.84;;;10.21;71.85
79362;BME280;68830;47.566;19.012;2024-03-17T08:24:43;100357.44;;;10.10;71.38
79362;BME280;68830;47.566;19.012;2024-03-17T08:27:45;100342.19;;;10.24;70.34
79362;BME280;68830;47.566;19.012;2024-03-17T08:30:53;100364.22;;;10.34;69.86
79362;BME280;68830;47.566;19.012;2024-03-17T08:33:56;100357.69;;;10.38;67.51
79362;BME280;68830;47.566;19.012;2024-03-17T08:36:56;100374.88;;;10.63;65.70
79362;BME280;68830;47.566;19.012;2024-03-17T08:39:57;100385.75;;;10.60;62.68
79362;BME280;68830;47.566;19.012;2024-03-17T08:43:00;100355.34;;;10.54;64.39
79362;BME280;68830;47.566;19.012;2024-03-17T08:46:02;100389.91;;;10.53;64.82
79362;BME280;68830;47.566;19.012;2024-03-17T08:49:04;100376.09;;;10.49;66.38
79362;BME280;68830;47.566;19.012;2024-03-17T08:52:06;100371.66;;;10.59;66.13
79362;BME280;68830;47.566;19.012;2024-03-17T08:55:09;100383.50;;;10.65;65.74
79362;BME280;68830;47.566;19.012;2024-03-17T08:58:13;100366.06;;;10.82;66.61
79362;BME280;68830;47.566;19.012;2024-03-17T09:01:15;100365.25;;;10.81;65.78
79362;BME280;68830;47.566;19.012;2024-03-17T09:04:17;100376.13;;;10.78;65.81
79362;BME280;68830;47.566;19.012;2024-03-17T09:07:18;100374.72;;;11.03;65.40
79362;BME280;68830;47.566;19.012;2024-03-17T09:10:19;100375.84;;;10.91;64.67
79362;BME280;68830;47.566;19.012;2024-03-17T09:13:23;100389.38;;;10.78;64.43
79362;BME280;68830;47.566;19.012;2024-03-17T09:16:24;100383.22;;;10.97;63.13
79362;BME280;68830;47.566;19.012;2024-03-17T09:19:27;100397.59;;;11.04;64.31
79362;BME280;68830;47.566;19.012;2024-03-17T09:22:29;100388.66;;;10.95;63.43
79362;BME280;68830;47.566;19.012;2024-03-17T09:25:31;100401.63;;;10.98;63.12
79362;BME280;68830;47.566;19.012;2024-03-17T09:28:33;100401.91;;;10.95;61.99
79362;BME280;68830;47.566;19.012;2024-03-17T09:31:34;100402.88;;;10.85;61.55
79362;BME280;68830;47.566;19.012;2024-03-17T09:34:36;100411.69;;;10.95;60.96
79362;BME280;68830;47.566;19.012;2024-03-17T09:37:37;100398.84;;;11.10;61.02
79362;BME280;68830;47.566;19.012;2024-03-17T09:40:45;100400.22;;;11.23;60.60
79362;BME280;68830;47.566;19.012;2024-03-17T09:43:49;100385.63;;;10.90;58.82
79362;BME280;68830;47.566;19.012;2024-03-17T09:46:51;100405.94;;;11.75;60.19
79362;BME280;68830;47.566;19.012;2024-03-17T09:49:52;100396.09;;;11.58;56.56
79362;BME280;68830;47.566;19.012;2024-03-17T09:52:53;100394.44;;;11.57;57.09
79362;BME280;68830;47.566;19.012;2024-03-17T09:55:57;100391.53;;;11.50;58.95
79362;BME280;68830;47.566;19.012;2024-03-17T09:59:02;100399.13;;;11.82;55.21
79362;BME280;68830;47.566;19.012;2024-03-17T10:02:06;100373.56;;;11.34;55.32
79362;BME280;68830;47.566;19.012;2024-03-17T10:05:22;100382.97;;;11.66;55.85
79362;BME280;68830;47.566;19.012;2024-03-17T10:08:23;100401.78;;;11.63;56.91
79362;BME280;68830;47.566;19.012;2024-03-17T10:11:33;100409.91;;;11.61;55.51
79362;BME280;68830;47.566;19.012;2024-03-17T10:14:36;100391.47;;;11.70;55.94
79362;BME280;68830;47.566;19.012;2024-03-17T10:17:36;100392.31;;;11.80;55.16
79362;BME280;68830;47.566;19.012;2024-03-17T10:20:38;100390.19;;;11.74;54.78
79362;BME280;68830;47.566;19.012;2024-03-17T10:23:39;100385.63;;;11.56;55.40
79362;BME280;68830;47.566;19.012;2024-03-17T10:26:44;100372.97;;;11.78;54.32
79362;BME280;68830;47.566;19.012;2024-03-17T10:29:49;100378.69;;;11.92;53.95
79362;BME280;68830;47.566;19.012;2024-03-17T10:32:55;100310.91;;;11.61;53.57
79362;BME280;68830;47.566;19.012;2024-03-17T10:35:59;100361.75;;;11.93;51.12
79362;BME280;68830;47.566;19.012;2024-03-17T10:39:21;100373.63;;;11.99;51.70
79362;BME280;68830;47.566;19.012;2024-03-17T10:42:25;100341.78;;;11.99;51.63
79362;BME280;68830;47.566;19.012;2024-03-17T10:45:28;100352.81;;;11.94;51.70
79362;BME280;68830;47.566;19.012;2024-03-17T10:48:32;100339.81;;;12.01;51.76
79362;BME280;68830;47.566;19.012;2024-03-17T10:51:34;100336.63;;;11.98;50.94
79362;BME280;68830;47.566;19.012;2024-03-17T10:54:35;100309.94;;;11.99;50.47
79362;BME280;68830;47.566;19.012;2024-03-17T10:57:45;100329.63;;;12.42;51.37
79362;BME280;68830;47.566;19.012;2024-03-17T11:00:51;100333.50;;;12.47;51.58
79362;BME280;68830;47.566;19.012;2024-03-17T11:03:52;100266.53;;;12.62;50.03
79362;BME280;68830;47.566;19.012;2024-03-17T11:06:55;100281.59;;;12.17;50.90
79362;BME280;68830;47.566;19.012;2024-03-17T11:09:59;100276.72;;;11.95;50.97
79362;BME280;68830;47.566;19.012;2024-03-17T11:13:01;100273.63;;;12.17;50.69
79362;BME280;68830;47.566;19.012;2024-03-17T11:16:04;100275.22;;;12.46;50.44
79362;BME280;68830;47.566;19.012;2024-03-17T11:19:06;100263.75;;;12.45;50.56
79362;BME280;68830;47.566;19.012;2024-03-17T11:25:51;100299.69;;;12.04;49.44
79362;BME280;68830;47.566;19.012;2024-03-17T11:28:53;100274.75;;;12.15;49.25
79362;BME280;68830;47.566;19.012;2024-03-17T11:31:57;100332.81;;;12.45;50.14
79362;BME280;68830;47.566;19.012;2024-03-17T11:35:13;100312.41;;;12.28;48.95
79362;BME280;68830;47.566;19.012;2024-03-17T11:41:49;100308.03;;;12.09;49.29
79362;BME280;68830;47.566;19.012;2024-03-17T11:44:56;100285.38;;;12.15;49.27
79362;BME280;68830;47.566;19.012;2024-03-17T11:48:00;100333.34;;;12.49;48.07
79362;BME280;68830;47.566;19.012;2024-03-17T11:51:04;100313.13;;;12.38;49.07
79362;BME280;68830;47.566;19.012;2024-03-17T11:54:05;100317.19;;;12.60;49.13
79362;BME280;68830;47.566;19.012;2024-03-17T11:57:08;100311.63;;;12.89;48.22
79362;BME280;68830;47.566;19.012;2024-03-17T12:00:28;100308.50;;;12.76;47.75
79362;BME280;68830;47.566;19.012;2024-03-17T12:03:31;100309.81;;;12.72;48.64
79362;BME280;68830;47.566;19.012;2024-03-17T12:06:32;100317.53;;;12.83;46.72
79362;BME280;68830;47.566;19.012;2024-03-17T12:09:36;100236.22;;;12.29;44.98
79362;BME280;68830;47.566;19.012;2024-03-17T12:12:36;100271.13;;;12.34;45.38
79362;BME280;68830;47.566;19.012;2024-03-17T12:15:40;100261.78;;;12.12;45.40
79362;BME280;68830;47.566;19.012;2024-03-17T12:18:42;100321.06;;;12.48;45.37
79362;BME280;68830;47.566;19.012;2024-03-17T12:21:48;100259.44;;;12.26;46.71
79362;BME280;68830;47.566;19.012;2024-03-17T12:24:51;100311.91;;;12.68;45.26
79362;BME280;68830;47.566;19.012;2024-03-17T12:27:52;100293.69;;;12.91;44.72
79362;BME280;68830;47.566;19.012;2024-03-17T12:30:53;100258.13;;;12.48;44.04
79362;BME280;68830;47.566;19.012;2024-03-17T12:33:57;100296.91;;;12.77;46.23
79362;BME280;68830;47.566;19.012;2024-03-17T12:36:59;100299.91;;;12.82;44.91
79362;BME280;68830;47.566;19.012;2024-03-17T12:40:00;100327.28;;;12.74;43.74
79362;BME280;68830;47.566;19.012;2024-03-17T12:43:02;100308.91;;;12.63;44.25
79362;BME280;68830;47.566;19.012;2024-03-17T12:46:04;100302.38;;;12.75;43.36
79362;BME280;68830;47.566;19.012;2024-03-17T12:49:09;100294.31;;;12.67;42.96
79362;BME280;68830;47.566;19.012;2024-03-17T12:52:17;100281.72;;;12.51;42.81
79362;BME280;68830;47.566;19.012;2024-03-17T12:55:19;100277.09;;;12.53;43.35
79362;BME280;68830;47.566;19.012;2024-03-17T12:58:38;100200.75;;;12.38;42.42
79362;BME280;68830;47.566;19.012;2024-03-17T13:02:01;100282.53;;;12.70;41.98
79362;BME280;68830;47.566;19.012;2024-03-17T13:05:07;100273.72;;;12.69;42.08
79362;BME280;68830;47.566;19.012;2024-03-17T13:08:10;100255.28;;;12.68;41.69
79362;BME280;68830;47.566;19.012;2024-03-17T13:11:11;100280.97;;;12.59;42.05
79362;BME280;68830;47.566;19.012;2024-03-17T13:14:12;100286.66;;;12.46;40.78
79362;BME280;68830;47.566;19.012;2024-03-17T13:17:17;100276.38;;;12.69;41.15
79362;BME280;68830;47.566;19.012;2024-03-17T13:20:22;100280.81;;;12.61;40.87
79362;BME280;68830;47.566;19.012;2024-03-17T13:23:23;100289.09;;;12.57;40.36
79362;BME280;68830;47.566;19.012;2024-03-17T13:26:25;100262.53;;;12.57;40.84
79362;BME280;68830;47.566;19.012;2024-03-17T13:29:26;100284.16;;;12.63;41.50
79362;BME280;68830;47.566;19.012;2024-03-17T13:32:27;100284.84;;;12.65;40.87
79362;BME280;68830;47.566;19.012;2024-03-17T13:35:30;100271.31;;;12.40;41.25
79362;BME280;68830;47.566;19.012;2024-03-17T13:38:31;100296.91;;;12.23;40.80
79362;BME280;68830;47.566;19.012;2024-03-17T13:41:32;100276.50;;;12.60;41.95
79362;BME280;68830;47.566;19.012;2024-03-17T13:44:33;100291.69;;;12.49;43.50
79362;BME280;68830;47.566;19.012;2024-03-17T13:47:35;100270.72;;;12.64;43.23
79362;BME280;68830;47.566;19.012;2024-03-17T13:50:38;100283.50;;;12.43;43.23
79362;BME280;68830;47.566;19.012;2024-03-17T13:53:48;100253.66;;;12.49;43.40
79362;BME280;68830;47.566;19.012;2024-03-17T13:56:49;100274.00;;;12.58;42.97
79362;BME280;68830;47.566;19.012;2024-03-17T13:59:50;100283.69;;;12.49;43.21
79362;BME280;68830;47.566;19.012;2024-03-17T14:02:54;100251.53;;;12.35;42.56
79362;BME280;68830;47.566;19.012;2024-03-17T14:05:58;100250.19;;;12.31;43.14
79362;BME280;68830;47.566;19.012;2024-03-17T14:08:59;100251.78;;;12.41;43.59
79362;BME280;68830;47.566;19.012;2024-03-17T14:12:00;100266.78;;;12.33;42.91
79362;BME280;68830;47.566;19.012;2024-03-17T14:15:03;100282.88;;;12.13;44.58
79362;BME280;68830;47.566;19.012;2024-03-17T14:18:06;100250.19;;;12.13;45.45
79362;BME280;68830;47.566;19.012;2024-03-17T14:21:09;100265.44;;;12.11;45.16
79362;BME280;68830;47.566;19.012;2024-03-17T14:24:10;100268.66;;;12.05;44.23
79362;BME280;68830;47.566;19.012;2024-03-17T14:27:12;100263.13;;;11.98;43.91
79362;BME280;68830;47.566;19.012;2024-03-17T14:30:15;100276.09;;;11.83;45.10
79362;BME280;68830;47.566;19.012;2024-03-17T14:33:17;100278.44;;;11.77;44.74
79362;BME280;68830;47.566;19.012;2024-03-17T14:36:20;100267.75;;;11.68;45.12
79362;BME280;68830;47.566;19.012;2024-03-17T14:39:27;100249.03;;;11.70;45.70
79362;BME280;68830;47.566;19.012;2024-03-17T14:42:30;100251.69;;;11.70;45.90
79362;BME280;68830;47.566;19.012;2024-03-17T14:45:31;100235.63;;;11.44;47.24
79362;BME280;68830;47.566;19.012;2024-03-17T14:48:32;100262.81;;;11.46;46.18
79362;BME280;68830;47.566;19.012;2024-03-17T14:51:34;100250.19;;;11.30;46.92
79362;BME280;68830;47.566;19.012;2024-03-17T14:54:35;100247.97;;;11.26;46.24
79362;BME280;68830;47.566;19.012;2024-03-17T14:57:37;100241.16;;;11.23;45.83
79362;BME280;68830;47.566;19.012;2024-03-17T15:00:39;100241.19;;;11.14;47.30
79362;BME280;68830;47.566;19.012;2024-03-17T15:03:40;100238.16;;;11.08;48.50
79362;BME280;68830;47.566;19.012;2024-03-17T15:06:42;100251.00;;;11.03;48.80
79362;BME280;68830;47.566;19.012;2024-03-17T15:09:47;100247.69;;;10.92;49.08
79362;BME280;68830;47.566;19.012;2024-03-17T15:12:49;100259.38;;;10.99;48.88
79362;BME280;68830;47.566;19.012;2024-03-17T15:15:51;100250.19;;;10.93;48.34
79362;BME280;68830;47.566;19.012;2024-03-17T15:18:54;100234.16;;;10.85;50.04
79362;BME280;68830;47.566;19.012;2024-03-17T15:21:56;100245.88;;;10.92;48.35
79362;BME280;68830;47.566;19.012;2024-03-17T15:24:57;100240.88;;;10.89;47.81
79362;BME280;68830;47.566;19.012;2024-03-17T15:27:59;100236.66;;;10.87;49.53
79362;BME280;68830;47.566;19.012;2024-03-17T15:31:05;100246.03;;;10.81;50.09
79362;BME280;68830;47.566;19.012;2024-03-17T15:34:07;100231.84;;;10.72;49.90
79362;BME280;68830;47.566;19.012;2024-03-17T15:37:09;100239.78;;;10.72;50.74
79362;BME280;68830;47.566;19.012;2024-03-17T15:40:11;100244.22;;;10.72;50.07
79362;BME280;68830;47.566;19.012;2024-03-17T15:43:18;100232.00;;;10.61;48.75
79362;BME280;68830;47.566;19.012;2024-03-17T15:46:20;100212.38;;;10.35;48.75
79362;BME280;68830;47.566;19.012;2024-03-17T15:49:22;100239.00;;;10.43;49.57